aviador You're here:

CYFS Decoded Metar

FORT SIMPSON in NT, CANADA
Report Time2017-08-18 16:00:00
UTC Time2017-08-18 16:30:10
Flight Rules vfr VFR
Wind170° at 06 kt
W.Decomp.*RWY 14: 5.9 kt HW 0.9 kt RCW
W.Rank170° ranks 17
Current wind is above 170° avg. (4.6)
Visibility9999 m
Phenomena:N/A
Clouds:Few 030 Hf
Few 100 Hf
Few 160 Hf
Few 220 Hf
Expected CloudBase > 2,800 ft AGL from Temp-Dew spread
CeilingNone
Temp16°C (ISA +2)
Dew Point09°C (63% RH)
AAT13.6°C
QNH995 hPa
Density Alt1,572 ft
Elevation554 ft
Report Wrong Elevation
Raw Report
CYFS 181600Z 17006KT 15SM FEW030 FEW100 FEW160 FEW220 16/09 A2938
RMK CU1AC1AC1CI1 CU TR AC TR AC TR CI TR SLP954 DENSITY ALT
1500FT=

Extra information for CYFS:More info

Metar Taf Metar & Taf Last 4 Metars F.Rules Stats Wind Profile Meteogram Temp Stats Airport Information Weather charts Add Link Nearby VenuesMetar ALERT Operation Metar Decoded Social comments